Time;durP1;ratioP1;P1;durP2;ratioP2;P2;SDS_P1;SDS_P2;PMS_P1;PMS_P2;Temp;Humidity;BMP_temperature;BMP_pressure;BME280_temperature;BME280_humidity;BME280_pressure;Samples;Min_cycle;Max_cycle;Signal;HPM_P1;HPM_P2
2023/06/30 00:01:00;;;;;;;;;;;;;;;15.85;68.12;100804.59;107630;1257;124700;-79
2023/06/30 00:03:47;;;;;;;;;;;;;;;15.81;68.21;100801.39;107771;1256;61102;-79
2023/06/30 00:06:14;;;;;;;;;;;;;;;15.79;68.25;100801.20;108009;1256;124545;-79
2023/06/30 00:08:41;;;;;;;;;;;;;;;15.76;68.35;100799.95;108337;1257;73675;-79
2023/06/30 00:11:09;;;;;;;;;;;;;;;15.73;68.46;100802.20;108195;1257;67243;-80
2023/06/30 00:13:36;;;;;;;;;;;;;;;15.70;68.52;100803.79;108006;1257;124254;-79
2023/06/30 00:16:03;;;;;;;;;;;;;;;15.68;68.65;100803.58;107890;1257;61528;-80
2023/06/30 00:18:30;;;;;;;;;;;;;;;15.65;68.83;100800.75;107468;1257;124519;-79
2023/06/30 00:20:57;;;;;;;;;;;;;;;15.61;68.94;100802.67;107584;1256;74229;-79
2023/06/30 00:23:27;;;;;;;;;;;;;;;15.57;68.95;100794.88;107624;1260;67027;-79
2023/06/30 00:25:54;;;;;;;;;;;;;;;15.54;69.09;100795.22;107793;1257;124681;-79
2023/06/30 00:28:21;;;;;;;;;;;;;;;15.51;69.18;100790.42;108072;1255;59884;-78
2023/06/30 00:30:48;;;;;;;;;;;;;;;15.49;69.24;100786.88;108019;1254;124451;-78
2023/06/30 00:33:16;;;;;;;;;;;;;;;15.47;69.41;100784.02;107912;1256;75066;-79
2023/06/30 00:35:43;;;;;;;;;;;;;;;15.45;69.58;100781.72;107979;1255;65870;-80
2023/06/30 00:38:10;;;;;;;;;;;;;;;15.44;69.48;100778.73;108105;1254;125362;-81
2023/06/30 00:40:37;;;;;;;;;;;;;;;15.45;69.67;100778.02;108391;1257;61887;-81
2023/06/30 00:43:04;;;;;;;;;;;;;;;15.45;69.71;100775.71;107862;1255;125221;-83
2023/06/30 00:45:31;;;;;;;;;;;;;;;15.47;69.79;100769.17;107628;1256;73939;-83
2023/06/30 00:47:58;;;;;;;;;;;;;;;15.50;69.79;100766.19;107706;1256;125567;-83
2023/06/30 00:50:25;;;;;;;;;;;;;;;15.54;69.90;100764.44;107559;1261;71429;-84
2023/06/30 00:52:52;;;;;;;;;;;;;;;15.58;69.90;100762.16;107564;1260;60039;-84
2023/06/30 00:55:19;;;;;;;;;;;;;;;15.63;70.04;100758.83;107436;1257;125511;-83
2023/06/30 00:57:46;;;;;;;;;;;;;;;15.69;69.99;100761.33;107899;1256;74727;-83
2023/06/30 01:00:13;;;;;;;;;;;;;;;15.77;70.01;100757.84;107829;1256;125419;-83
2023/06/30 01:03:01;;;;;;;;;;;;;;;15.86;69.86;100759.64;107696;1257;72474;-84
2023/06/30 01:05:31;;;;;;;;;;;;;;;15.96;69.92;100752.77;107847;1256;60343;-84
2023/06/30 01:08:16;;;;;;;;;;;;;;;16.04;69.93;100755.63;107987;1254;125021;-83
2023/06/30 01:10:43;;;;;;;;;;;;;;;16.15;69.76;100747.51;108248;1254;74669;-83
2023/06/30 01:13:10;;;;;;;;;;;;;;;16.24;69.64;100750.89;107797;1257;125520;-83
2023/06/30 01:15:38;;;;;;;;;;;;;;;16.32;69.54;100747.20;108092;1257;72201;-83
2023/06/30 01:18:05;;;;;;;;;;;;;;;16.41;69.46;100742.77;107733;1254;125057;-82
2023/06/30 01:20:34;;;;;;;;;;;;;;;16.48;69.37;100739.59;107818;1261;59638;-83
2023/06/30 01:23:15;;;;;;;;;;;;;;;16.54;69.21;100738.89;108108;1254;73025;-83
2023/06/30 01:25:42;;;;;;;;;;;;;;;16.60;69.15;100737.29;108248;1254;125255;-82
2023/06/30 01:28:09;;;;;;;;;;;;;;;16.62;68.99;100730.02;108050;1257;70452;-83
2023/06/30 01:30:36;;;;;;;;;;;;;;;16.63;68.90;100728.44;107810;1256;125137;-82
2023/06/30 01:33:03;;;;;;;;;;;;;;;16.68;68.81;100729.85;107831;1254;61217;-83
2023/06/30 01:35:31;;;;;;;;;;;;;;;16.70;68.78;100729.85;107744;1254;75114;-84
2023/06/30 01:37:59;;;;;;;;;;;;;;;16.73;68.86;100727.89;107824;1257;124630;-83
2023/06/30 01:40:27;;;;;;;;;;;;;;;16.75;68.67;100726.30;108103;1254;73159;-83
2023/06/30 01:42:55;;;;;;;;;;;;;;;16.78;68.70;100729.14;107679;1254;124524;-83
2023/06/30 01:45:23;;;;;;;;;;;;;;;16.81;68.67;100724.88;107559;1257;61709;-84
2023/06/30 01:47:50;;;;;;;;;;;;;;;16.84;68.61;100726.33;107797;1254;73455;-83
2023/06/30 01:50:18;;;;;;;;;;;;;;;16.87;68.74;100726.87;107833;1254;124530;-83
2023/06/30 01:52:45;;;;;;;;;;;;;;;16.91;68.61;100727.38;107902;1254;72823;-82
2023/06/30 01:55:12;;;;;;;;;;;;;;;16.93;68.64;100730.92;107922;1256;124257;-79
2023/06/30 01:57:39;;;;;;;;;;;;;;;16.96;68.49;100732.16;107934;1254;59847;-79
2023/06/30 02:00:06;;;;;;;;;;;;;;;16.97;68.58;100735.34;107958;1253;124862;-81
2023/06/30 02:02:33;;;;;;;;;;;;;;;16.98;68.51;100736.23;107840;1257;65903;-80
2023/06/30 02:05:00;;;;;;;;;;;;;;;17.01;68.53;100737.29;107751;1257;70272;-82
2023/06/30 02:07:28;;;;;;;;;;;;;;;17.04;68.46;100737.63;107772;1255;124329;-82
2023/06/30 02:09:55;;;;;;;;;;;;;;;17.05;68.45;100735.86;108101;1257;60796;-83
2023/06/30 02:12:22;;;;;;;;;;;;;;;17.07;68.47;100733.20;107853;1257;124936;-82
2023/06/30 02:14:48;;;;;;;;;;;;;;;17.09;68.45;100729.65;108193;1254;65452;-83
2023/06/30 02:17:15;;;;;;;;;;;;;;;17.14;68.42;100733.19;108145;1254;72709;-83
2023/06/30 02:19:49;;;;;;;;;;;;;;;17.17;68.37;100731.23;107608;1257;125021;-84
2023/06/30 02:22:16;;;;;;;;;;;;;;;17.20;68.18;100732.48;107663;1254;61276;-82
2023/06/30 02:24:42;;;;;;;;;;;;;;;17.22;68.35;100729.27;108886;1256;126246;-82
2023/06/30 02:27:09;;;;;;;;;;;;;;;17.24;68.30;100727.67;109048;1255;67061;-82
2023/06/30 02:29:36;;;;;;;;;;;;;;;17.26;68.30;100729.44;109025;1257;72730;-82
2023/06/30 02:32:04;;;;;;;;;;;;;;;17.28;68.28;100724.46;108777;1254;124285;-82
2023/06/30 02:34:30;;;;;;;;;;;;;;;17.30;68.17;100723.57;108939;1254;59408;-82
2023/06/30 02:36:57;;;;;;;;;;;;;;;17.34;68.13;100718.42;108858;1256;124066;-82
2023/06/30 02:39:24;;;;;;;;;;;;;;;17.38;68.04;100715.73;109149;1254;66930;-82
2023/06/30 02:41:51;;;;;;;;;;;;;;;17.43;67.93;100712.17;109102;1256;73041;-82
2023/06/30 02:44:18;;;;;;;;;;;;;;;17.46;67.78;100708.45;108839;1256;59465;-82
2023/06/30 02:46:46;;;;;;;;;;;;;;;17.49;67.71;100707.36;108885;1254;59953;-80
2023/06/30 02:49:13;;;;;;;;;;;;;;;17.54;67.59;100708.23;108805;1254;124486;-81
2023/06/30 02:51:40;;;;;;;;;;;;;;;17.59;67.51;100706.79;108995;1254;67674;-80
2023/06/30 02:54:07;;;;;;;;;;;;;;;17.64;67.40;100703.04;108982;1254;124449;-83
2023/06/30 02:56:34;;;;;;;;;;;;;;;17.70;67.36;100699.45;108913;1256;59170;-84
2023/06/30 02:59:01;;;;;;;;;;;;;;;17.77;67.27;100699.78;108965;1255;59021;-83
2023/06/30 03:01:28;;;;;;;;;;;;;;;17.84;67.18;100702.23;108913;1254;125080;-83
2023/06/30 03:03:55;;;;;;;;;;;;;;;17.90;67.11;100704.17;109181;1254;65460;-84
2023/06/30 03:06:23;;;;;;;;;;;;;;;17.99;67.01;100702.35;109040;1254;124977;-84
2023/06/30 03:08:50;;;;;;;;;;;;;;;18.08;66.88;100701.92;109139;1256;59557;-83
2023/06/30 03:11:19;;;;;;;;;;;;;;;18.19;66.77;100704.70;108693;1257;59960;-83
2023/06/30 03:13:46;;;;;;;;;;;;;;;18.29;66.64;100702.32;108883;1256;125972;-81
2023/06/30 03:16:13;;;;;;;;;;;;;;;18.40;66.54;100699.73;108906;1256;65484;-84
2023/06/30 03:18:40;;;;;;;;;;;;;;;18.50;66.24;100694.52;108795;1257;125254;-83
2023/06/30 03:21:08;;;;;;;;;;;;;;;18.59;66.15;100690.88;109165;1254;58913;-83
2023/06/30 03:23:42;;;;;;;;;;;;;;;18.70;65.98;100689.36;108442;1253;61365;-83
2023/06/30 03:26:09;;;;;;;;;;;;;;;18.83;65.81;100688.53;107993;1254;125143;-81
2023/06/30 03:28:36;;;;;;;;;;;;;;;18.99;65.69;100686.77;108282;1254;66776;-81
2023/06/30 03:31:03;;;;;;;;;;;;;;;19.24;65.78;100683.48;107772;1257;125545;-79
2023/06/30 03:33:30;;;;;;;;;;;;;;;19.73;65.80;100687.33;107869;1257;59824;-79
2023/06/30 03:35:57;;;;;;;;;;;;;;;20.20;65.04;100685.77;107654;1257;124916;-82
2023/06/30 03:38:24;;;;;;;;;;;;;;;20.37;63.98;100685.13;107688;1256;75277;-83
2023/06/30 03:40:51;;;;;;;;;;;;;;;20.38;63.40;100686.54;107787;1253;67064;-84
2023/06/30 03:43:21;;;;;;;;;;;;;;;20.38;63.16;100687.77;108971;1254;124515;-82
2023/06/30 03:45:48;;;;;;;;;;;;;;;20.39;62.91;100687.23;108969;1255;59050;-82
2023/06/30 03:48:15;;;;;;;;;;;;;;;20.43;62.88;100686.64;109045;1256;124424;-81
2023/06/30 03:50:45;;;;;;;;;;;;;;;20.56;62.74;100682.33;108896;1259;74420;-81
2023/06/30 03:53:12;;;;;;;;;;;;;;;20.79;62.70;100680.52;109117;1256;66765;-81
2023/06/30 03:55:39;;;;;;;;;;;;;;;21.33;62.65;100679.30;108994;1254;124821;-81
2023/06/30 03:58:06;;;;;;;;;;;;;;;21.74;61.80;100676.65;109043;1255;58980;-81
2023/06/30 04:00:33;;;;;;;;;;;;;;;21.99;61.15;100673.58;108987;1254;124904;-81
2023/06/30 04:03:01;;;;;;;;;;;;;;;22.23;60.75;100676.24;109032;1254;74781;-81
2023/06/30 04:05:29;;;;;;;;;;;;;;;22.50;60.24;100669.16;108855;1254;66163;-81
2023/06/30 04:07:56;;;;;;;;;;;;;;;23.18;60.66;100670.55;108910;1254;124090;-80
2023/06/30 04:10:24;;;;;;;;;;;;;;;24.51;60.40;100671.83;108016;1257;59363;-85
2023/06/30 04:12:51;;;;;;;;;;;;;;;26.15;59.12;100671.52;108132;1256;124660;-82
2023/06/30 04:15:18;;;;;;;;;;;;;;;27.18;56.52;100670.58;108106;1257;75248;-81
2023/06/30 04:17:45;;;;;;;;;;;;;;;27.31;54.70;100669.11;107766;1254;60495;-82
2023/06/30 04:20:15;;;;;;;;;;;;;;;27.17;53.61;100667.52;107912;1254;124739;-81
2023/06/30 04:22:45;;;;;;;;;;;;;;;26.98;52.83;100661.20;107711;1254;61187;-82
2023/06/30 04:25:12;;;;;;;;;;;;;;;26.61;52.57;100661.92;107535;1256;261954;-81
2023/06/30 04:27:39;;;;;;;;;;;;;;;26.41;52.50;100663.26;107839;1256;73138;-83
2023/06/30 04:30:07;;;;;;;;;;;;;;;26.14;52.02;100663.85;107879;1254;124255;-80
2023/06/30 04:32:34;;;;;;;;;;;;;;;25.67;51.94;100664.79;107892;1256;71356;-80
2023/06/30 04:35:01;;;;;;;;;;;;;;;25.18;52.21;100667.17;108003;1259;62162;-79
2023/06/30 04:37:31;;;;;;;;;;;;;;;24.71;52.36;100669.74;107871;1257;124028;-80
2023/06/30 04:39:58;;;;;;;;;;;;;;;24.23;52.51;100670.63;107947;1257;74389;-80
2023/06/30 04:42:27;;;;;;;;;;;;;;;23.72;52.87;100668.11;107701;1256;124808;-82
2023/06/30 04:44:54;;;;;;;;;;;;;;;23.36;53.33;100663.09;107705;1256;72783;-79
2023/06/30 04:47:21;;;;;;;;;;;;;;;23.08;53.71;100661.71;108021;1257;59398;-79
2023/06/30 04:49:48;;;;;;;;;;;;;;;22.86;54.09;100663.73;108031;1254;124678;-79
2023/06/30 04:52:15;;;;;;;;;;;;;;;22.68;54.48;100662.41;108026;1254;73382;-80
2023/06/30 04:54:43;;;;;;;;;;;;;;;22.57;54.66;100662.54;107891;1257;124654;-80
2023/06/30 04:57:10;;;;;;;;;;;;;;;22.47;54.98;100660.82;108131;1254;71319;-79
2023/06/30 04:59:37;;;;;;;;;;;;;;;22.44;55.33;100655.91;108107;1254;60944;-78
2023/06/30 05:02:04;;;;;;;;;;;;;;;22.46;55.34;100659.44;108163;1256;124199;-78
2023/06/30 05:04:31;;;;;;;;;;;;;;;22.50;55.45;100657.00;108349;1254;74680;-85
2023/06/30 05:06:58;;;;;;;;;;;;;;;22.56;55.43;100654.35;107943;1260;124750;-81
2023/06/30 05:09:25;;;;;;;;;;;;;;;22.61;55.49;100654.02;107760;1257;72391;-87
2023/06/30 05:11:58;;;;;;;;;;;;;;;22.71;55.43;100654.11;107595;1255;59806;-82
2023/06/30 05:14:26;;;;;;;;;;;;;;;22.83;55.30;100656.85;107779;1255;60519;-84
2023/06/30 05:17:01;;;;;;;;;;;;;;;22.89;55.22;100657.20;107741;1253;74731;-85
2023/06/30 05:19:28;;;;;;;;;;;;;;;22.98;55.25;100657.52;107873;1255;124308;-83
2023/06/30 05:21:56;;;;;;;;;;;;;;;23.01;55.15;100652.41;107768;1255;72713;-84
2023/06/30 05:24:42;;;;;;;;;;;;;;;23.04;55.23;100654.67;107472;1255;125173;-83
2023/06/30 05:27:09;;;;;;;;;;;;;;;23.11;55.14;100654.85;107713;1256;61211;-87
2023/06/30 05:29:36;;;;;;;;;;;;;;;23.17;54.96;100656.30;107691;1258;73259;-85
2023/06/30 05:32:04;;;;;;;;;;;;;;;23.24;55.03;100654.64;107450;1257;124063;-86
2023/06/30 05:34:46;;;;;;;;;;;;;;;23.31;54.87;100652.85;107833;1256;72334;-84
2023/06/30 05:37:21;;;;;;;;;;;;;;;23.40;54.69;100654.36;107761;1256;124421;-84
2023/06/30 05:39:49;;;;;;;;;;;;;;;23.51;54.65;100656.36;107797;1254;59964;-83
2023/06/30 05:42:16;;;;;;;;;;;;;;;23.66;54.45;100650.90;107681;1255;125033;-84
2023/06/30 05:44:45;;;;;;;;;;;;;;;23.87;54.27;100650.64;107680;1256;65662;-84
2023/06/30 05:47:14;;;;;;;;;;;;;;;24.09;53.86;100651.16;107633;1256;71732;-84
2023/06/30 05:49:44;;;;;;;;;;;;;;;24.29;53.81;100644.96;107726;1256;124245;-84
2023/06/30 05:52:12;;;;;;;;;;;;;;;24.43;53.30;100650.94;107667;1256;61218;-83
2023/06/30 05:54:39;;;;;;;;;;;;;;;24.50;52.95;100648.39;107569;1256;124440;-85
2023/06/30 05:57:07;;;;;;;;;;;;;;;24.58;52.88;100652.98;107584;1256;66364;-85
2023/06/30 05:59:36;;;;;;;;;;;;;;;24.67;52.72;100648.36;107687;1256;72984;-85
2023/06/30 06:02:09;;;;;;;;;;;;;;;24.81;52.67;100652.18;107317;1256;124180;-83
2023/06/30 06:04:36;;;;;;;;;;;;;;;24.90;52.33;100654.91;107724;1256;61217;-85
2023/06/30 06:07:05;;;;;;;;;;;;;;;24.91;52.22;100654.85;107559;1256;125097;-83
2023/06/30 06:09:32;;;;;;;;;;;;;;;24.97;52.12;100654.83;107763;1255;65856;-83
2023/06/30 06:12:04;;;;;;;;;;;;;;;24.99;52.04;100650.11;107705;1256;72546;-83
2023/06/30 06:14:34;;;;;;;;;;;;;;;25.01;51.85;100646.60;107643;1256;60879;-83
2023/06/30 06:17:01;;;;;;;;;;;;;;;25.06;51.79;100647.15;107592;1257;60344;-83
2023/06/30 06:19:28;;;;;;;;;;;;;;;25.12;51.69;100647.63;107451;1256;124525;-83
2023/06/30 06:21:57;;;;;;;;;;;;;;;25.18;51.64;100646.17;107480;1256;67425;-83
2023/06/30 06:24:25;;;;;;;;;;;;;;;25.25;51.56;100642.35;107536;1259;124736;-83
2023/06/30 06:26:51;;;;;;;;;;;;;;;25.27;51.42;100644.97;107495;1254;60922;-83
2023/06/30 06:29:22;;;;;;;;;;;;;;;25.26;51.27;100643.73;107892;1254;61327;-83
2023/06/30 06:31:49;;;;;;;;;;;;;;;25.24;51.20;100644.90;108828;1254;124537;-83
2023/06/30 06:34:17;;;;;;;;;;;;;;;25.22;51.09;100645.81;109172;1255;67265;-83
2023/06/30 06:36:53;;;;;;;;;;;;;;;25.21;50.80;100644.77;107657;1255;124402;-83
2023/06/30 06:39:20;;;;;;;;;;;;;;;25.21;50.61;100644.24;107711;1254;61228;-83
2023/06/30 06:41:48;;;;;;;;;;;;;;;25.20;50.34;100648.95;107581;1257;60594;-83
2023/06/30 06:44:15;;;;;;;;;;;;;;;25.17;50.24;100647.63;107598;1254;124396;-82
2023/06/30 06:47:07;;;;;;;;;;;;;;;25.11;50.14;100649.46;108113;1254;67034;-83
2023/06/30 06:49:34;;;;;;;;;;;;;;;25.07;50.26;100647.65;107974;1257;124542;-83
2023/06/30 06:52:02;;;;;;;;;;;;;;;25.05;50.28;100647.71;107910;1255;60822;-83
2023/06/30 06:54:31;;;;;;;;;;;;;;;25.08;50.39;100651.20;107840;1258;124931;-83
2023/06/30 06:57:00;;;;;;;;;;;;;;;25.10;50.41;100654.01;107620;1256;74446;-84
2023/06/30 06:59:28;;;;;;;;;;;;;;;25.14;50.34;100652.41;107625;1253;65729;-82
2023/06/30 07:01:55;;;;;;;;;;;;;;;25.22;50.33;100653.02;107542;1258;124077;-82
2023/06/30 07:04:23;;;;;;;;;;;;;;;25.31;50.24;100652.02;107780;1254;61634;-82
2023/06/30 07:06:50;;;;;;;;;;;;;;;25.36;50.20;100651.09;107590;1256;124105;-82
2023/06/30 07:09:17;;;;;;;;;;;;;;;25.41;50.02;100647.29;107742;1254;73037;-82
2023/06/30 07:11:45;;;;;;;;;;;;;;;25.38;49.80;100644.00;107791;1256;67730;-82
2023/06/30 07:14:20;;;;;;;;;;;;;;;25.29;49.75;100646.48;107766;1254;124144;-82
2023/06/30 07:16:51;;;;;;;;;;;;;;;25.16;49.70;100651.44;107673;1254;60986;-82
2023/06/30 07:19:18;;;;;;;;;;;;;;;25.07;49.92;100648.36;107443;1254;124500;-82
2023/06/30 07:21:45;;;;;;;;;;;;;;;25.02;50.05;100647.83;107621;1255;74968;-82
2023/06/30 07:24:12;;;;;;;;;;;;;;;24.95;49.82;100643.41;108837;1256;124751;-84
2023/06/30 07:26:40;;;;;;;;;;;;;;;24.90;49.99;100645.40;107986;1254;72867;-84
2023/06/30 07:29:07;;;;;;;;;;;;;;;24.90;50.13;100647.39;107483;1256;61244;-82
2023/06/30 07:31:34;;;;;;;;;;;;;;;24.89;50.34;100646.85;107826;1254;124100;-82
2023/06/30 07:34:02;;;;;;;;;;;;;;;24.91;50.24;100645.36;108959;1254;73492;-82
2023/06/30 07:36:37;;;;;;;;;;;;;;;24.92;50.19;100651.25;108223;1254;124864;-83
2023/06/30 07:39:04;;;;;;;;;;;;;;;24.94;50.22;100652.77;107779;1254;72352;-84
2023/06/30 07:41:34;;;;;;;;;;;;;;;24.94;50.26;100652.59;108031;1253;61208;-83
2023/06/30 07:44:02;;;;;;;;;;;;;;;24.92;50.20;100652.14;107914;1253;124113;-83
2023/06/30 07:46:35;;;;;;;;;;;;;;;24.94;50.27;100648.29;107710;1253;74349;-84
2023/06/30 07:49:02;;;;;;;;;;;;;;;24.97;50.33;100649.23;107493;1255;124281;-82
2023/06/30 07:51:30;;;;;;;;;;;;;;;24.99;50.37;100645.39;107530;1253;72604;-82
2023/06/30 07:54:05;;;;;;;;;;;;;;;25.01;50.23;100652.18;107663;1253;61434;-82
2023/06/30 07:56:33;;;;;;;;;;;;;;;25.00;50.36;100650.95;107517;1254;61254;-82
2023/06/30 07:59:00;;;;;;;;;;;;;;;24.97;50.24;100650.52;107548;1255;73253;-83
2023/06/30 08:01:27;;;;;;;;;;;;;;;24.89;50.33;100647.77;107702;1254;124213;-82
2023/06/30 08:03:54;;;;;;;;;;;;;;;24.81;50.35;100645.36;108015;1259;72981;-83
2023/06/30 08:06:21;;;;;;;;;;;;;;;24.73;50.27;100643.67;107785;1254;124691;-83
2023/06/30 08:08:48;;;;;;;;;;;;;;;24.66;50.38;100646.98;107521;1255;60982;-82
2023/06/30 08:11:16;;;;;;;;;;;;;;;24.59;50.71;100643.23;107652;1257;74447;-84
2023/06/30 08:13:43;;;;;;;;;;;;;;;24.54;50.72;100641.45;107586;1256;124710;-84
2023/06/30 08:16:10;;;;;;;;;;;;;;;24.50;51.01;100639.22;107608;1254;72557;-82
2023/06/30 08:18:37;;;;;;;;;;;;;;;24.50;51.15;100633.13;107495;1253;124687;-83
2023/06/30 08:21:05;;;;;;;;;;;;;;;24.52;51.24;100632.91;107653;1253;61853;-83
2023/06/30 08:23:32;;;;;;;;;;;;;;;24.60;51.47;100632.27;107704;1254;74373;-83
2023/06/30 08:26:01;;;;;;;;;;;;;;;24.79;51.51;100632.70;107462;1254;125034;-82
2023/06/30 08:28:32;;;;;;;;;;;;;;;25.00;51.52;100628.14;107923;1259;72793;-81
2023/06/30 08:31:00;;;;;;;;;;;;;;;25.24;51.46;100635.54;108045;1255;124514;-81
2023/06/30 08:33:28;;;;;;;;;;;;;;;25.42;51.35;100632.69;107796;1254;59279;-80
2023/06/30 08:35:55;;;;;;;;;;;;;;;25.61;50.98;100629.63;107490;1254;75848;-81
2023/06/30 08:38:22;;;;;;;;;;;;;;;25.83;50.72;100626.08;107539;1254;124538;-81
2023/06/30 08:40:51;;;;;;;;;;;;;;;26.00;50.34;100621.63;107694;1257;71082;-80
2023/06/30 08:43:20;;;;;;;;;;;;;;;26.24;49.96;100618.30;107394;1257;125092;-80
2023/06/30 08:45:55;;;;;;;;;;;;;;;26.39;49.30;100616.42;107434;1254;61267;-81
2023/06/30 08:48:29;;;;;;;;;;;;;;;26.52;49.03;100619.06;107618;1256;124197;-82
2023/06/30 08:50:56;;;;;;;;;;;;;;;26.72;48.90;100617.90;107596;1256;66765;-80
2023/06/30 08:53:24;;;;;;;;;;;;;;;26.84;48.61;100612.84;107444;1255;71495;-80
2023/06/30 08:56:04;;;;;;;;;;;;;;;;;;;;;
2023/06/30 08:58:39;;;;;;;;;;;;;;;27.02;48.74;100612.91;107606;1255;59239;-81
2023/06/30 09:01:06;;;;;;;;;;;;;;;27.11;48.32;100615.22;108815;1259;124163;-81
2023/06/30 09:03:33;;;;;;;;;;;;;;;27.14;48.29;100608.96;108931;1261;66360;-81
2023/06/30 09:06:00;;;;;;;;;;;;;;;27.21;48.28;100613.33;109004;1255;72683;-82
2023/06/30 09:08:45;;;;;;;;;;;;;;;27.29;48.08;100615.85;107665;1261;124123;-82
2023/06/30 09:11:15;;;;;;;;;;;;;;;27.32;47.89;100616.44;107587;1256;59595;-83
2023/06/30 09:13:42;;;;;;;;;;;;;;;27.30;47.56;100620.84;107517;1256;124559;-81
2023/06/30 09:16:15;;;;;;;;;;;;;;;27.25;47.24;100617.84;107592;1257;67445;-81
2023/06/30 09:18:42;;;;;;;;;;;;;;;27.17;47.22;100618.01;107498;1257;124258;-81
2023/06/30 09:21:10;;;;;;;;;;;;;;;27.15;47.49;100619.73;107678;1257;59845;-81
2023/06/30 09:23:37;;;;;;;;;;;;;;;27.17;47.22;100624.88;107824;1256;61189;-81
2023/06/30 09:26:10;;;;;;;;;;;;;;;27.15;47.13;100623.48;108057;1257;124581;-81
2023/06/30 09:28:38;;;;;;;;;;;;;;;27.10;46.95;100631.84;108015;1254;67620;-81
2023/06/30 09:31:04;;;;;;;;;;;;;;;26.95;46.77;100623.87;107952;1254;125148;-81
2023/06/30 09:33:32;;;;;;;;;;;;;;;26.81;46.86;100627.02;107918;1256;59585;-81
2023/06/30 09:36:00;;;;;;;;;;;;;;;26.63;46.97;100624.56;108927;1254;59271;-81
2023/06/30 09:38:29;;;;;;;;;;;;;;;26.46;47.18;100627.08;108867;1256;124356;-81
2023/06/30 09:40:56;;;;;;;;;;;;;;;26.35;47.80;100637.80;109078;1256;65886;-80
2023/06/30 09:43:24;;;;;;;;;;;;;;;26.15;48.51;100639.02;108913;1254;124597;-80
2023/06/30 09:45:56;;;;;;;;;;;;;;;25.91;48.88;100639.59;107694;1255;60286;-81
2023/06/30 09:48:30;;;;;;;;;;;;;;;25.72;49.65;100632.42;107559;1255;124224;-81
2023/06/30 09:50:58;;;;;;;;;;;;;;;25.41;49.97;100627.36;108289;1255;72838;-81
2023/06/30 09:53:25;;;;;;;;;;;;;;;25.06;50.70;100627.23;108181;1254;67659;-81
2023/06/30 09:55:53;;;;;;;;;;;;;;;24.80;51.24;100630.48;107519;1254;124727;-81
2023/06/30 09:58:26;;;;;;;;;;;;;;;24.70;51.96;100629.24;107799;1254;61277;-81
2023/06/30 10:00:53;;;;;;;;;;;;;;;24.69;52.40;100632.52;107741;1257;124393;-80
2023/06/30 10:03:20;;;;;;;;;;;;;;;24.64;52.75;100630.54;107731;1257;74657;-81
2023/06/30 10:05:48;;;;;;;;;;;;;;;24.59;53.04;100627.10;107806;1256;65808;-80
2023/06/30 10:08:15;;;;;;;;;;;;;;;24.58;53.18;100626.79;107732;1254;124668;-80
2023/06/30 10:10:42;;;;;;;;;;;;;;;24.61;53.64;100630.64;107841;1254;60490;-81
2023/06/30 10:13:14;;;;;;;;;;;;;;;24.58;53.82;100628.59;107740;1257;124301;-81
2023/06/30 10:15:42;;;;;;;;;;;;;;;24.47;53.92;100628.23;107664;1259;74480;-80
2023/06/30 10:18:12;;;;;;;;;;;;;;;24.34;54.22;100633.86;107424;1257;124462;-80
2023/06/30 10:20:39;;;;;;;;;;;;;;;24.20;54.58;100633.08;107821;1254;72692;-80
2023/06/30 10:23:06;;;;;;;;;;;;;;;24.13;55.11;100634.02;108100;1254;61262;-80
2023/06/30 10:25:35;;;;;;;;;;;;;;;24.20;55.26;100632.88;108042;1254;124719;-83
2023/06/30 10:28:02;;;;;;;;;;;;;;;24.16;55.17;100631.77;108112;1255;75314;-81
2023/06/30 10:30:33;;;;;;;;;;;;;;;24.15;55.42;100630.55;107761;1254;124479;-80
2023/06/30 10:33:06;;;;;;;;;;;;;;;24.16;55.53;100629.27;107709;1255;72663;-81
2023/06/30 10:35:33;;;;;;;;;;;;;;;24.16;55.66;100632.48;107570;1254;61256;-80
2023/06/30 10:38:00;;;;;;;;;;;;;;;24.10;55.51;100633.74;107713;1256;124119;-80
2023/06/30 10:40:28;;;;;;;;;;;;;;;23.98;55.56;100635.41;107934;1254;74421;-80
2023/06/30 10:42:56;;;;;;;;;;;;;;;23.89;55.85;100635.52;107809;1254;125094;-80
2023/06/30 10:45:33;;;;;;;;;;;;;;;23.82;56.10;100634.65;107766;1256;71738;-80
2023/06/30 10:48:09;;;;;;;;;;;;;;;23.82;56.28;100636.29;109067;1257;59331;-80
2023/06/30 10:50:43;;;;;;;;;;;;;;;23.71;56.53;100637.13;108336;1257;60407;-83
2023/06/30 10:53:17;;;;;;;;;;;;;;;23.59;57.23;100633.02;107385;1256;74909;-86
2023/06/30 10:55:47;;;;;;;;;;;;;;;23.52;57.63;100631.07;107333;1256;124267;-83
2023/06/30 10:58:23;;;;;;;;;;;;;;;23.43;57.86;100628.30;107677;1254;72510;-81
2023/06/30 11:01:04;;;;;;;;;;;;;;;23.31;58.16;100622.41;107625;1256;124454;-83
2023/06/30 11:03:50;;;;;;;;;;;;;;;23.13;58.49;100616.67;107790;1262;60550;-80
2023/06/30 11:06:35;;;;;;;;;;;;;;;22.99;58.83;100616.50;108016;1256;74624;-80
2023/06/30 11:09:03;;;;;;;;;;;;;;;22.98;59.03;100614.56;108065;1257;65660;-80
2023/06/30 11:11:47;;;;;;;;;;;;;;;23.03;59.40;100615.86;107982;1257;71310;-80
2023/06/30 11:14:14;;;;;;;;;;;;;;;23.13;59.40;100610.21;107815;1257;124125;-81
2023/06/30 11:17:01;;;;;;;;;;;;;;;23.29;59.72;100602.61;107630;1254;60007;-83
2023/06/30 11:19:31;;;;;;;;;;;;;;;23.59;59.82;100598.64;107546;1257;124271;-80
2023/06/30 11:22:16;;;;;;;;;;;;;;;23.89;59.61;100595.90;107842;1257;66560;-81
2023/06/30 11:24:43;;;;;;;;;;;;;;;24.16;59.29;100600.02;107673;1257;125233;-81
2023/06/30 11:27:10;;;;;;;;;;;;;;;24.24;59.01;100597.44;107667;1256;60898;-81
2023/06/30 11:29:38;;;;;;;;;;;;;;;24.15;58.69;100593.26;107477;1257;60884;-82
2023/06/30 11:32:05;;;;;;;;;;;;;;;24.00;58.66;100591.44;107489;1257;124933;-82
2023/06/30 11:34:32;;;;;;;;;;;;;;;23.76;58.82;100595.79;107695;1259;65502;-81
2023/06/30 11:37:04;;;;;;;;;;;;;;;23.54;59.37;100595.38;107529;1255;124689;-82
2023/06/30 11:39:31;;;;;;;;;;;;;;;23.41;59.74;100597.77;107531;1256;59637;-80
2023/06/30 11:41:58;;;;;;;;;;;;;;;23.25;60.06;100603.42;107708;1256;61355;-82
2023/06/30 11:44:29;;;;;;;;;;;;;;;23.11;60.42;100603.86;107709;1256;124283;-84
2023/06/30 11:46:56;;;;;;;;;;;;;;;23.00;60.96;100606.64;107865;1257;66768;-83
2023/06/30 11:49:26;;;;;;;;;;;;;;;22.81;61.25;100602.69;107751;1257;124200;-83
2023/06/30 11:52:01;;;;;;;;;;;;;;;22.60;61.73;100604.54;107674;1260;60113;-86
2023/06/30 11:54:30;;;;;;;;;;;;;;;22.40;62.14;100598.98;107630;1254;124178;-84
2023/06/30 11:56:59;;;;;;;;;;;;;;;22.31;62.75;100595.98;107619;1255;72853;-84
2023/06/30 11:59:26;;;;;;;;;;;;;;;22.37;63.05;100595.10;107816;1255;64958;-83
2023/06/30 12:02:03;;;;;;;;;;;;;;;22.47;63.50;100588.94;107749;1257;124098;-85
2023/06/30 12:04:33;;;;;;;;;;;;;;;22.64;63.68;100582.05;107901;1257;61257;-82
2023/06/30 12:07:06;;;;;;;;;;;;;;;22.77;63.51;100575.44;107470;1256;125030;-83
2023/06/30 12:09:33;;;;;;;;;;;;;;;22.98;63.46;100573.57;107846;1256;73797;-82
2023/06/30 12:12:00;;;;;;;;;;;;;;;23.30;63.76;100568.55;107830;1259;67051;-82
2023/06/30 12:14:28;;;;;;;;;;;;;;;23.74;63.87;100568.25;107615;1257;124968;-83
2023/06/30 12:16:57;;;;;;;;;;;;;;;24.16;63.34;100567.77;107698;1257;59994;-84
2023/06/30 12:19:31;;;;;;;;;;;;;;;24.44;62.82;100570.40;107684;1257;125084;-83
2023/06/30 12:22:00;;;;;;;;;;;;;;;24.57;62.40;100569.78;107713;1257;73880;-83
2023/06/30 12:24:31;;;;;;;;;;;;;;;24.58;61.90;100569.21;107742;1257;124978;-83
2023/06/30 12:27:03;;;;;;;;;;;;;;;24.51;61.68;100567.64;107792;1257;73141;-85
2023/06/30 12:29:35;;;;;;;;;;;;;;;24.44;61.69;100565.88;108127;1257;59363;-85
2023/06/30 12:32:16;;;;;;;;;;;;;;;24.48;61.87;100564.67;108045;1255;124118;-86